EHGG/GRQ METAR and TAF weather

Enter ICAO airport designator
Station Type Date Time Source
EHGG METAR 2018/10/19 15:25 UTC NOAA

EHGG 191525Z AUTO VRB02KT 9999 NSC 12/04 Q1025 NOSIG


Station Type Date Time Source
EHGG Decoded METAR 2018/10/19 15:25 UTC NOAA

Groningen Airport Eelde, Netherlands (EHGG) 53-08N 006-35E 4M
Oct 19, 2018 - 11:25 AM EDT / 2018.10.19 1525 UTC
Wind: Variable at 2 MPH (2 KT):0
Visibility: greater than 7 mile(s):0
Temperature: 53 F (12 C)
Dew Point: 39 F (4 C)
Relative Humidity: 57%
Pressure (altimeter): 30.27 in. Hg (1025 hPa)
ob: EHGG 191525Z AUTO VRB02KT 9999 NSC 12/04 Q1025 NOSIG
cycle: 15

Station Type Date Time Source
EHGG TAF 2018/10/19 12:27 UTC NOAA

TAF EHGG 191115Z 1912/2018 08005KT CAVOK
BECMG 1919/1922 4000 BR MIFG
TEMPO 1921/2005 1500 BCFG PROB40 1922/2003 0400 FG
BECMG 2006/2008 7000 NSW SCT004
BECMG 2008/2011 9999 BKN020 PROB30 2012/2015 BKN014


Example: see airport list